Airfield :
LOGIN :

Register | Disclaimer

   EN    FR    IT 

 










Legend :    VFR   Marginal VFR   IFR   Intensive IFR   Very Intensive IFR
Visi :
Ceiling :
>= 8 km
>= 3000ft
5 to 8 km
1000 to 3000 ft
1500m to 5 km
500 to 1000 ft
800 to 1500m
200 to 500 ft
< 800m
< 200 ft
Symbols :   Thunderstorms  Fog  Heavy snow  Heavy precipitations  Wind > 20 kt
SIGMETs :     Misc.  Thunderstorms  Icing  Turbulence  Mountain Waves  Volcanic Ashes






- Airport Elevation : 1197 ft
- IATA code : SPM


ETAD - Spangdahlem Ab

CURRENT METAR :
  • 310856Z AUTO 06012G19KT 9999 CLR 17/04 A3016 RMK AO2 SLP200 T01650042 50001 $

EXPIRED METARs :
  • 310756Z AUTO 06008KT 9999 CLR 16/04 A3016 RMK AO2 SLP198 T01570041 $
  • 310656Z AUTO 06008KT 9999 CLR 14/05 A3016 RMK AO2 SLP200 T01420048 $

TAF AMD TAF ETAD
Valid from the 30 at 18:00 until the 31 at 20:00 UTC


301800Z 3018/3120 06012G18KT 9999 SCT060 QNH3014INS WND 08009KT AFT 3021
BECMG 3105/3106 07010G18KT 9999 SCT040 QNH3016INS TX19/3018Z TN09/3104Z LAST NO AMDS AFT 3018 NEXT 3110



MET'MAP, your aeronautical weather chart ! - Copyright ORBIFLY December 2007 - Disclaimer

ORBIFLY MET'MAP TEAM :

Programming & Development : Alexandra Zaïnal
Concept & original design : Baudouin d'Aumeries
Assistance for programming : Marc-Olivier Méhu
Technical & hardware support : Manuel Goepfert

Contact : metmap@orbifly.com




SOURCES & CREDITS :

   NOAA